To NAV CANADA Home Page Login to a new session Search on AWWS site Disclaimer Vers la page française équivalente Tips FAQ What's new on the site To the Forecasts and Observations / NOTAM section To "File a Flight Plan" website Publications and other links Update of the User's profile FIC Telephone Numbers My Weather Data Folder Route Weather Data Regional Weather Data Local Weather Data To the Forecasts and Observations / NOTAM section
Request Generated 10/19/2018 at 15:55:37 UTC . Weather information available at that time is displayed.

METAR/TAF

WAWA/ON    

METAR CYXZ 191500Z 23005KT 15SM FEW015 FEW056 SCT075 BKN230 09/08 A2961 RMK SF1SC1AC2CI2 SF TR SLP037=
METAR CYXZ 191400Z 22011KT 12SM FEW015 SCT059 BKN075 BKN083 08/08 A2965 RMK SF1SC2AS3AC1 SLP050=
SPECI CYXZ 191335Z 22007KT 10SM FEW015 BKN056 OVC072 08/08 A2966 RMK SF1SC4AS3 PRESFR SLP053=
METAR CYXZ 191300Z 22009G16KT 9SM -RA FEW018 SCT069 BKN075 07/07 A2967 RMK SF1AC3AS4 SF TR PRESFR SLP057=

TAF CYXZ 191238Z 1913/1924 21012G22KT P6SM -RA BKN050 TEMPO 1913/1916
5SM -RA BR BKN020 OVC050
FM191600 22015G25KT 6SM -RA BR SCT006 OVC015 TEMPO 1916/1924 2SM
-SHRA BR OVC006
BECMG 1922/1924 27010KT
RMK NXT FCST BY 192000Z=
Your time UTC time
Weather data provided by Environment Canada and NAV CANADA